< < Back
Terminal Aerodrome Forecast


Current Version              Previous Versions:   1  2  3  4  5  6  7  8  9  

Terminal Aerodrome Forecast

773
FTUS42 KJAX 011720
TAFSSI
TAF
KSSI 011720Z 0118/0218 01007KT P6SM OVC006
      TEMPO 0118/0122 OVC008
     FM020000 03004KT 3SM BR OVC004
     FM020300 01003KT 1SM BR OVC002
      TEMPO 0209/0213 1/2SM FG OVC001
     FM021500 VRB03KT 5SM BR BKN010=



Latest METAR

025
SAUS70 KWBC 011900 RRX
MTRSSI
METAR KSSI 011853Z AUTO 35005KT 10SM OVC007 12/09 A3039 RMK AO2 SLP290
T01170094


USA.gov is the U.S. government's official web portal to all federal, state and local government web resources and services.